createdAt,value
2022-09-06T00:01:45.840Z,19.07
2022-09-06T00:04:16.030Z,19.08
2022-09-06T00:06:53.915Z,19.08
2022-09-06T00:09:21.246Z,19.01
2022-09-06T00:11:48.201Z,19.06
2022-09-06T00:14:16.551Z,19.05
2022-09-06T00:16:43.515Z,19.04
2022-09-06T00:19:10.425Z,19.01
2022-09-06T00:21:40.015Z,18.99
2022-09-06T00:24:10.113Z,18.98
2022-09-06T00:26:43.838Z,18.96
2022-09-06T00:29:23.218Z,18.98
2022-09-06T00:31:50.132Z,18.98
2022-09-06T00:34:18.942Z,18.99
2022-09-06T00:36:46.915Z,19.00
2022-09-06T00:39:16.867Z,18.98
2022-09-06T00:41:47.030Z,18.97
2022-09-06T00:47:00.292Z,18.94
2022-09-06T00:49:56.986Z,18.96
2022-09-06T00:52:29.243Z,18.97
2022-09-06T00:55:04.363Z,18.97
2022-09-06T00:57:33.935Z,18.99
2022-09-06T01:00:36.562Z,18.99
2022-09-06T01:03:04.913Z,19.00
2022-09-06T01:06:23.023Z,19.01
2022-09-06T01:09:14.832Z,19.00
2022-09-06T01:11:41.644Z,19.00
2022-09-06T01:14:44.666Z,18.98
2022-09-06T01:17:43.528Z,18.96
2022-09-06T01:21:21.214Z,18.93
2022-09-06T01:24:14.903Z,18.90
2022-09-06T01:27:09.155Z,18.88
2022-09-06T01:30:14.748Z,18.87
2022-09-06T01:32:58.523Z,18.83
2022-09-06T01:35:55.362Z,18.79
2022-09-06T01:38:24.781Z,18.75
2022-09-06T01:40:57.407Z,18.75
2022-09-06T01:43:30.565Z,18.71
2022-09-06T01:46:08.093Z,18.69
2022-09-06T01:49:22.880Z,18.67
2022-09-06T01:52:08.648Z,18.60
2022-09-06T01:54:59.014Z,18.62
2022-09-06T01:57:54.978Z,18.59
2022-09-06T02:00:30.000Z,18.56
2022-09-06T02:03:22.739Z,18.55
2022-09-06T02:06:24.227Z,18.53
2022-09-06T02:09:36.420Z,18.52
2022-09-06T02:12:10.384Z,18.51
2022-09-06T02:14:45.752Z,18.49
2022-09-06T02:17:21.472Z,18.46
2022-09-06T02:19:57.809Z,18.46
2022-09-06T02:22:37.152Z,18.40
2022-09-06T02:25:09.240Z,18.42
2022-09-06T02:27:37.233Z,18.40
2022-09-06T02:30:05.838Z,18.37
2022-09-06T02:32:37.453Z,18.36
2022-09-06T02:35:12.783Z,18.35
2022-09-06T02:37:45.103Z,18.36
2022-09-06T02:40:13.917Z,18.27
2022-09-06T02:42:43.233Z,18.26
2022-09-06T02:45:16.363Z,18.27
2022-09-06T02:47:44.078Z,18.25
2022-09-06T02:50:13.397Z,18.20
2022-09-06T02:52:40.370Z,18.21
2022-09-06T02:55:13.329Z,18.16
2022-09-06T02:57:40.564Z,18.21
2022-09-06T03:00:07.964Z,18.21
2022-09-06T03:02:41.253Z,18.19
2022-09-06T03:05:14.012Z,18.17
2022-09-06T03:07:40.946Z,18.17
2022-09-06T03:10:08.313Z,18.13
2022-09-06T03:12:36.150Z,18.15
2022-09-06T03:15:11.644Z,18.14
2022-09-06T03:17:39.165Z,18.13
2022-09-06T03:20:07.051Z,18.12
2022-09-06T03:22:45.807Z,18.11
2022-09-06T03:25:14.056Z,18.10
2022-09-06T03:27:41.057Z,18.08
2022-09-06T03:30:16.211Z,18.07
2022-09-06T03:32:51.130Z,18.06
2022-09-06T03:35:18.035Z,18.05
2022-09-06T03:37:44.939Z,18.05
2022-09-06T03:42:47.215Z,18.04
2022-09-06T03:45:21.431Z,18.02
2022-09-06T03:47:48.520Z,17.97
2022-09-06T03:50:15.923Z,17.96
2022-09-06T03:52:43.089Z,17.96
2022-09-06T03:55:10.392Z,17.99
2022-09-06T03:57:37.277Z,17.97
2022-09-06T04:00:05.197Z,17.99
2022-09-06T04:02:32.305Z,17.99
2022-09-06T04:04:59.801Z,18.01
2022-09-06T04:07:29.018Z,18.00
2022-09-06T04:10:04.055Z,18.01
2022-09-06T04:12:34.714Z,18.00
2022-09-06T04:15:05.018Z,17.90
2022-09-06T04:17:34.038Z,17.92
2022-09-06T04:20:02.179Z,17.89
2022-09-06T04:22:29.112Z,17.92
2022-09-06T04:24:56.103Z,17.95
2022-09-06T04:27:23.285Z,17.92
2022-09-06T04:30:02.989Z,17.87
2022-09-06T04:32:29.923Z,17.87
2022-09-06T04:34:56.741Z,17.86
2022-09-06T04:37:23.659Z,17.83
2022-09-06T04:39:50.645Z,17.80
2022-09-06T04:42:17.629Z,17.79
2022-09-06T04:44:44.617Z,17.74
2022-09-06T04:47:15.502Z,17.76
2022-09-06T04:49:42.819Z,17.70
2022-09-06T04:52:10.306Z,17.67
2022-09-06T04:54:37.421Z,17.67
2022-09-06T04:57:04.699Z,17.66
2022-09-06T04:59:31.597Z,17.62
2022-09-06T05:01:58.595Z,17.61
2022-09-06T05:04:26.145Z,17.58
2022-09-06T05:07:07.272Z,17.54
2022-09-06T05:09:35.021Z,17.49
2022-09-06T05:12:02.021Z,17.48
2022-09-06T05:14:29.361Z,17.45
2022-09-06T05:16:56.397Z,17.41
2022-09-06T05:19:23.426Z,17.37
2022-09-06T05:21:53.309Z,17.34
2022-09-06T05:24:20.271Z,17.29
2022-09-06T05:26:47.202Z,17.27
2022-09-06T05:29:14.397Z,17.25
2022-09-06T05:31:41.394Z,17.23
2022-09-06T05:34:08.444Z,17.19
2022-09-06T05:36:35.495Z,17.17
2022-09-06T05:39:02.397Z,17.13
2022-09-06T05:41:29.261Z,17.13
2022-09-06T05:43:56.462Z,17.13
2022-09-06T05:46:23.431Z,17.12
2022-09-06T05:49:01.175Z,17.12
2022-09-06T05:51:28.203Z,17.14
2022-09-06T05:53:55.069Z,17.13
2022-09-06T05:56:22.560Z,17.13
2022-09-06T05:58:49.467Z,17.11
2022-09-06T06:01:18.360Z,17.15
2022-09-06T06:03:52.995Z,17.16
2022-09-06T06:06:21.718Z,17.17
2022-09-06T06:08:48.959Z,17.19
2022-09-06T06:11:16.317Z,17.21
2022-09-06T06:13:44.438Z,17.23
2022-09-06T06:16:13.726Z,17.27
2022-09-06T06:18:40.945Z,17.24
2022-09-06T06:21:08.021Z,17.30
2022-09-06T06:23:35.096Z,17.31
2022-09-06T06:26:05.940Z,17.31
2022-09-06T06:28:33.050Z,17.33
2022-09-06T06:30:59.870Z,17.34
2022-09-06T06:33:26.829Z,17.36
2022-09-06T06:36:00.646Z,17.40
2022-09-06T06:38:46.446Z,17.41
2022-09-06T06:41:17.029Z,17.45
2022-09-06T06:43:44.324Z,17.46
2022-09-06T06:46:13.675Z,17.50
2022-09-06T06:48:41.539Z,17.54
2022-09-06T06:51:10.019Z,17.56
2022-09-06T06:53:37.063Z,17.59
2022-09-06T06:56:23.330Z,17.63
2022-09-06T06:58:52.589Z,17.65
2022-09-06T07:01:22.041Z,17.70
2022-09-06T07:03:49.278Z,17.75
2022-09-06T07:06:19.704Z,17.77
2022-09-06T07:08:46.741Z,17.81
2022-09-06T07:11:15.936Z,17.85
2022-09-06T07:13:43.179Z,17.90
2022-09-06T07:16:30.355Z,17.95
2022-09-06T07:18:57.190Z,17.98
2022-09-06T07:21:42.172Z,18.04
2022-09-06T07:24:09.587Z,18.09
2022-09-06T07:26:39.399Z,18.10
2022-09-06T07:29:07.480Z,18.17
2022-09-06T07:34:23.269Z,18.30
2022-09-06T07:36:53.572Z,18.39
2022-09-06T07:39:20.661Z,18.47
2022-09-06T07:41:51.098Z,18.54
2022-09-06T07:44:18.076Z,18.58
2022-09-06T07:46:45.154Z,18.65
2022-09-06T07:49:12.232Z,18.70
2022-09-06T07:51:39.283Z,18.78
2022-09-06T07:54:28.718Z,18.88
2022-09-06T07:56:53.954Z,18.94
2022-09-06T07:59:20.897Z,19.01
2022-09-06T08:01:48.360Z,19.08
2022-09-06T08:04:15.394Z,19.12
2022-09-06T08:09:33.521Z,19.32
2022-09-06T08:12:06.585Z,19.40
2022-09-06T08:14:34.569Z,19.48
2022-09-06T08:17:02.114Z,19.53
2022-09-06T08:19:29.048Z,19.59
2022-09-06T08:21:56.217Z,19.65
2022-09-06T08:24:23.458Z,19.74
2022-09-06T08:26:50.421Z,19.79
2022-09-06T08:29:18.906Z,19.87
2022-09-06T08:31:46.463Z,19.92
2022-09-06T08:34:15.116Z,19.96
2022-09-06T08:36:43.123Z,20.07
2022-09-06T08:39:10.412Z,20.09
2022-09-06T08:41:57.833Z,20.21
2022-09-06T08:47:21.806Z,20.38
2022-09-06T08:50:03.573Z,20.45
2022-09-06T08:53:06.121Z,20.52
2022-09-06T08:55:54.958Z,20.61
2022-09-06T08:58:27.874Z,20.69
2022-09-06T09:01:00.695Z,20.76
2022-09-06T09:03:39.279Z,20.84
2022-09-06T09:06:10.042Z,20.90
2022-09-06T09:08:52.521Z,20.99
2022-09-06T09:11:22.568Z,21.04
2022-09-06T09:13:55.824Z,21.12
2022-09-06T09:16:23.776Z,21.18
2022-09-06T09:18:57.471Z,21.24
2022-09-06T09:21:30.408Z,21.29
2022-09-06T09:24:03.743Z,21.37
2022-09-06T09:26:37.089Z,21.43
2022-09-06T09:29:11.009Z,21.52
2022-09-06T09:32:01.453Z,21.59
2022-09-06T09:34:39.839Z,21.65
2022-09-06T09:40:30.327Z,21.78
2022-09-06T09:43:11.217Z,21.81
2022-09-06T09:45:38.136Z,21.90
2022-09-06T09:48:27.908Z,21.99
2022-09-06T09:50:56.078Z,22.04
2022-09-06T09:53:24.484Z,22.09
2022-09-06T09:55:59.061Z,22.15
2022-09-06T09:58:36.837Z,22.20
2022-09-06T10:01:11.353Z,22.26
2022-09-06T10:09:33.648Z,22.46
2022-09-06T10:12:00.607Z,22.53
2022-09-06T10:14:41.430Z,22.58
2022-09-06T10:17:08.726Z,22.64
2022-09-06T10:19:42.098Z,22.67
2022-09-06T10:22:26.432Z,22.73
2022-09-06T10:25:11.760Z,22.80
2022-09-06T10:28:10.427Z,22.86
2022-09-06T10:30:52.501Z,22.90
2022-09-06T10:33:35.446Z,22.95
2022-09-06T10:36:03.800Z,23.04
2022-09-06T10:38:48.357Z,23.10
2022-09-06T10:41:23.090Z,23.15
2022-09-06T10:44:15.825Z,23.21
2022-09-06T10:46:45.683Z,23.22
2022-09-06T10:49:19.828Z,23.30
2022-09-06T10:51:52.258Z,23.36
2022-09-06T10:54:24.436Z,23.40
2022-09-06T10:56:54.238Z,23.44
2022-09-06T11:02:36.133Z,23.57
2022-09-06T11:10:55.721Z,23.76
2022-09-06T11:13:26.929Z,23.85
2022-09-06T11:16:20.635Z,23.90
2022-09-06T11:18:57.144Z,23.97
2022-09-06T11:22:01.004Z,24.01
2022-09-06T11:24:46.361Z,24.03
2022-09-06T11:27:35.775Z,24.06
2022-09-06T11:30:06.894Z,24.05
2022-09-06T11:32:48.861Z,24.10
2022-09-06T11:35:32.650Z,24.17
2022-09-06T11:38:03.537Z,24.19
2022-09-06T11:40:38.981Z,24.21
2022-09-06T11:43:05.818Z,24.24
2022-09-06T11:45:50.742Z,24.31
2022-09-06T11:48:23.786Z,24.34
2022-09-06T11:50:53.384Z,24.39
2022-09-06T11:53:31.805Z,24.41
2022-09-06T11:56:01.898Z,24.47
2022-09-06T11:58:35.125Z,24.50
2022-09-06T12:01:14.006Z,24.53
2022-09-06T12:04:09.519Z,24.55
2022-09-06T12:07:13.148Z,24.59
2022-09-06T12:09:44.186Z,24.58
2022-09-06T12:12:16.809Z,24.63
2022-09-06T12:14:49.202Z,24.65
2022-09-06T12:17:16.722Z,24.67
2022-09-06T12:19:52.448Z,24.71
2022-09-06T12:22:32.758Z,24.73
2022-09-06T12:25:18.457Z,24.76
2022-09-06T12:27:56.300Z,24.78
2022-09-06T12:30:37.534Z,24.82
2022-09-06T12:33:32.535Z,24.85
2022-09-06T12:36:30.996Z,24.88
2022-09-06T12:39:03.929Z,24.90
2022-09-06T12:41:38.399Z,24.92
2022-09-06T12:44:09.235Z,24.93
2022-09-06T12:46:37.109Z,24.93
2022-09-06T12:49:10.121Z,24.91
2022-09-06T12:51:43.736Z,24.99
2022-09-06T12:54:23.190Z,24.98
2022-09-06T12:56:51.445Z,25.01
2022-09-06T12:59:25.153Z,25.02
2022-09-06T13:02:08.651Z,25.02
2022-09-06T13:04:46.541Z,25.07
2022-09-06T13:07:17.257Z,25.06
2022-09-06T13:09:52.022Z,25.09
2022-09-06T13:12:33.799Z,25.06
2022-09-06T13:15:25.235Z,25.09
2022-09-06T13:18:16.602Z,25.08
2022-09-06T13:20:43.771Z,25.08
2022-09-06T13:23:19.527Z,25.11
2022-09-06T13:25:53.102Z,25.12
2022-09-06T13:28:38.251Z,25.12
2022-09-06T13:31:23.093Z,25.16
2022-09-06T13:33:59.619Z,25.16
2022-09-06T13:36:31.495Z,25.18
2022-09-06T13:38:59.950Z,25.18
2022-09-06T13:41:41.286Z,25.21
2022-09-06T13:44:11.102Z,25.23
2022-09-06T13:46:38.040Z,25.24
2022-09-06T13:49:05.690Z,25.27
2022-09-06T13:51:34.061Z,25.27
2022-09-06T13:54:14.301Z,25.28
2022-09-06T13:56:42.636Z,25.31
2022-09-06T13:59:11.022Z,25.32
2022-09-06T14:01:43.120Z,25.35
2022-09-06T14:04:13.443Z,25.35
2022-09-06T14:06:40.504Z,25.37
2022-09-06T14:09:08.619Z,25.42
2022-09-06T14:11:36.581Z,25.42
2022-09-06T14:14:06.339Z,25.43
2022-09-06T14:16:34.429Z,25.46
2022-09-06T14:19:01.368Z,25.49
2022-09-06T14:21:28.467Z,25.51
2022-09-06T14:23:55.307Z,25.54
2022-09-06T14:26:23.114Z,25.54
2022-09-06T14:28:51.161Z,25.55
2022-09-06T14:31:20.964Z,25.54
2022-09-06T14:33:48.023Z,25.58
2022-09-06T14:36:17.541Z,25.59
2022-09-06T14:38:45.864Z,25.58
2022-09-06T14:41:14.535Z,25.61
2022-09-06T14:43:43.466Z,25.63
2022-09-06T14:46:14.254Z,25.65
2022-09-06T14:48:42.816Z,25.67
2022-09-06T14:51:19.188Z,25.68
2022-09-06T14:53:46.518Z,25.69
2022-09-06T14:56:13.778Z,25.69
2022-09-06T14:58:41.816Z,25.67
2022-09-06T15:01:14.718Z,25.72
2022-09-06T15:03:44.293Z,25.71
2022-09-06T15:06:11.322Z,25.71
2022-09-06T15:08:48.949Z,25.73
2022-09-06T15:11:43.687Z,25.74
2022-09-06T15:14:26.213Z,25.76
2022-09-06T15:16:56.705Z,25.78
2022-09-06T15:19:24.866Z,25.78
2022-09-06T15:21:51.838Z,25.77
2022-09-06T15:24:19.214Z,25.80
2022-09-06T15:26:46.243Z,25.79
2022-09-06T15:29:14.121Z,25.80
2022-09-06T15:31:42.559Z,25.83
2022-09-06T15:34:10.203Z,25.83
2022-09-06T15:36:37.804Z,25.84
2022-09-06T15:39:05.889Z,25.81
2022-09-06T15:41:36.176Z,25.85
2022-09-06T15:44:09.531Z,25.86
2022-09-06T15:46:36.586Z,25.85
2022-09-06T15:49:06.691Z,25.86
2022-09-06T15:51:35.503Z,25.86
2022-09-06T15:54:02.466Z,25.87
2022-09-06T15:56:29.393Z,25.88
2022-09-06T15:58:56.222Z,25.87
2022-09-06T16:01:25.332Z,25.85
2022-09-06T16:03:55.015Z,25.89
2022-09-06T16:09:01.993Z,25.89
2022-09-06T16:11:30.151Z,25.91
2022-09-06T16:13:56.993Z,25.91
2022-09-06T16:16:24.318Z,25.90
2022-09-06T16:18:52.299Z,25.90
2022-09-06T16:21:23.979Z,25.88
2022-09-06T16:24:02.256Z,25.89
2022-09-06T16:26:37.611Z,25.88
2022-09-06T16:29:06.278Z,25.85
2022-09-06T16:31:40.013Z,25.85
2022-09-06T16:34:09.073Z,25.83
2022-09-06T16:36:36.068Z,25.80
2022-09-06T16:39:03.988Z,25.79
2022-09-06T16:41:42.653Z,25.77
2022-09-06T16:44:16.200Z,25.76
2022-09-06T16:46:45.754Z,25.75
2022-09-06T16:49:12.929Z,25.73
2022-09-06T16:51:39.939Z,25.69
2022-09-06T16:54:06.945Z,25.68
2022-09-06T16:56:35.889Z,25.68
2022-09-06T16:59:08.314Z,25.63
2022-09-06T17:01:37.211Z,25.61
2022-09-06T17:04:05.475Z,25.58
2022-09-06T17:06:38.378Z,25.49
2022-09-06T17:09:05.318Z,25.45
2022-09-06T17:11:32.386Z,25.45
2022-09-06T17:13:59.320Z,25.42
2022-09-06T17:16:44.765Z,25.38
2022-09-06T17:19:13.898Z,25.34
2022-09-06T17:21:41.874Z,25.24
2022-09-06T17:24:10.662Z,25.24
2022-09-06T17:26:39.350Z,25.16
2022-09-06T17:29:07.199Z,25.09
2022-09-06T17:31:35.222Z,25.05
2022-09-06T17:34:02.192Z,25.00
2022-09-06T17:36:33.193Z,24.96
2022-09-06T17:39:13.877Z,24.92
2022-09-06T17:41:46.300Z,24.85
2022-09-06T17:44:15.629Z,24.80
2022-09-06T17:46:57.009Z,24.74
2022-09-06T17:49:24.581Z,24.68
2022-09-06T17:51:52.144Z,24.65
2022-09-06T17:54:19.382Z,24.61
2022-09-06T17:56:46.384Z,24.56
2022-09-06T17:59:15.455Z,24.52
2022-09-06T18:01:45.427Z,24.48
2022-09-06T18:04:13.527Z,24.44
2022-09-06T18:06:43.220Z,24.39
2022-09-06T18:09:14.643Z,24.33
2022-09-06T18:11:42.471Z,24.27
2022-09-06T18:14:11.871Z,24.17
2022-09-06T18:16:40.075Z,24.13
2022-09-06T18:19:08.290Z,24.06
2022-09-06T18:21:38.841Z,23.98
2022-09-06T18:24:06.146Z,23.92
2022-09-06T18:26:33.161Z,23.83
2022-09-06T18:29:00.547Z,23.76
2022-09-06T18:31:28.264Z,23.68
2022-09-06T18:33:59.880Z,23.62
2022-09-06T18:36:31.737Z,23.56
2022-09-06T18:39:03.198Z,23.50
2022-09-06T18:41:49.496Z,23.44
2022-09-06T18:44:16.772Z,23.37
2022-09-06T18:46:44.720Z,23.31
2022-09-06T18:49:14.178Z,23.25
2022-09-06T18:51:41.397Z,23.18
2022-09-06T18:54:09.619Z,23.13
2022-09-06T18:56:36.557Z,23.08
2022-09-06T18:59:05.217Z,23.02
2022-09-06T19:01:33.315Z,22.96
2022-09-06T19:04:01.163Z,22.93
2022-09-06T19:06:29.662Z,22.89
2022-09-06T19:09:00.961Z,22.85
2022-09-06T19:11:28.542Z,22.78
2022-09-06T19:13:56.961Z,22.72
2022-09-06T19:16:25.790Z,22.65
2022-09-06T19:18:56.790Z,22.59
2022-09-06T19:21:25.592Z,22.53
2022-09-06T19:24:04.560Z,22.48
2022-09-06T19:26:34.986Z,22.43
2022-09-06T19:29:05.194Z,22.39
2022-09-06T19:31:34.974Z,22.31
2022-09-06T19:34:02.713Z,22.25
2022-09-06T19:36:31.953Z,22.20
2022-09-06T19:39:05.535Z,22.18
2022-09-06T19:41:36.571Z,22.13
2022-09-06T19:44:05.895Z,22.09
2022-09-06T19:46:34.948Z,22.01
2022-09-06T19:49:02.325Z,22.02
2022-09-06T19:51:29.396Z,21.97
2022-09-06T19:54:00.414Z,21.98
2022-09-06T19:56:31.725Z,21.92
2022-09-06T19:59:10.014Z,21.90
2022-09-06T20:01:41.650Z,21.85
2022-09-06T20:04:11.089Z,21.81
2022-09-06T20:06:38.553Z,21.76
2022-09-06T20:09:09.258Z,21.77
2022-09-06T20:11:37.873Z,21.71
2022-09-06T20:14:05.092Z,21.66
2022-09-06T20:16:32.736Z,21.62
2022-09-06T20:19:00.375Z,21.61
2022-09-06T20:21:30.902Z,21.59
2022-09-06T20:23:59.385Z,21.58
2022-09-06T20:26:29.100Z,21.55
2022-09-06T20:29:00.480Z,21.52
2022-09-06T20:31:29.393Z,21.52
2022-09-06T20:33:59.313Z,21.49
2022-09-06T20:36:26.323Z,21.46
2022-09-06T20:38:53.369Z,21.46
2022-09-06T20:41:23.468Z,21.42
2022-09-06T20:43:52.653Z,21.40
2022-09-06T20:46:21.778Z,21.39
2022-09-06T20:48:48.967Z,21.35
2022-09-06T20:51:19.132Z,21.34
2022-09-06T20:53:48.744Z,21.29
2022-09-06T20:56:18.571Z,21.29
2022-09-06T20:58:56.901Z,21.27
2022-09-06T21:01:25.487Z,21.29
2022-09-06T21:03:54.691Z,21.28
2022-09-06T21:06:22.888Z,21.28
2022-09-06T21:08:50.342Z,21.26
2022-09-06T21:11:18.180Z,21.31
2022-09-06T21:13:50.654Z,21.34
2022-09-06T21:16:23.957Z,21.35
2022-09-06T21:18:52.866Z,21.33
2022-09-06T21:21:19.931Z,21.35
2022-09-06T21:23:46.858Z,21.34
2022-09-06T21:26:15.955Z,21.34
2022-09-06T21:28:45.255Z,21.33
2022-09-06T21:31:25.162Z,21.32
2022-09-06T21:33:54.378Z,21.30
2022-09-06T21:36:24.103Z,21.29
2022-09-06T21:39:00.803Z,21.32
2022-09-06T21:41:31.993Z,21.27
2022-09-06T21:44:09.455Z,21.29
2022-09-06T21:46:38.116Z,21.29
2022-09-06T21:49:14.034Z,21.27
2022-09-06T21:51:41.529Z,21.27
2022-09-06T21:54:10.684Z,21.29
2022-09-06T21:56:41.539Z,21.29
2022-09-06T21:59:12.783Z,21.31
2022-09-06T22:01:48.124Z,21.33
2022-09-06T22:04:16.610Z,21.30
2022-09-06T22:06:46.511Z,21.32
2022-09-06T22:09:13.762Z,21.29
2022-09-06T22:11:58.240Z,21.27
2022-09-06T22:14:32.363Z,21.27
2022-09-06T22:17:02.889Z,21.29
2022-09-06T22:19:29.929Z,21.26
2022-09-06T22:22:02.887Z,21.26
2022-09-06T22:24:32.564Z,21.25
2022-09-06T22:27:25.855Z,21.25
2022-09-06T22:29:53.366Z,21.24
2022-09-06T22:32:23.612Z,21.23
2022-09-06T22:34:50.715Z,21.24
2022-09-06T22:37:17.619Z,21.26
2022-09-06T22:39:45.916Z,21.25
2022-09-06T22:42:17.364Z,21.28
2022-09-06T22:44:46.656Z,21.29
2022-09-06T22:47:30.787Z,21.29
2022-09-06T22:49:58.594Z,21.30
2022-09-06T22:52:25.663Z,21.25
2022-09-06T22:54:52.586Z,21.30
2022-09-06T22:57:21.053Z,21.28
2022-09-06T22:59:51.375Z,21.30
2022-09-06T23:02:18.318Z,21.31
2022-09-06T23:04:45.256Z,21.32
2022-09-06T23:07:13.132Z,21.27
2022-09-06T23:09:44.543Z,21.30
2022-09-06T23:12:12.515Z,21.24
2022-09-06T23:14:59.939Z,21.26
2022-09-06T23:17:28.930Z,21.10
2022-09-06T23:19:56.155Z,20.83
2022-09-06T23:22:23.112Z,20.69
2022-09-06T23:24:56.006Z,20.54
2022-09-06T23:27:24.529Z,20.39
2022-09-06T23:29:52.947Z,20.38
2022-09-06T23:32:19.959Z,20.33
2022-09-06T23:34:47.390Z,20.25
2022-09-06T23:37:17.747Z,20.19
2022-09-06T23:39:47.034Z,20.13
2022-09-06T23:42:15.178Z,20.05
2022-09-06T23:44:44.786Z,20.04
2022-09-06T23:47:11.733Z,20.01
2022-09-06T23:49:39.059Z,19.96
2022-09-06T23:52:09.835Z,19.93
2022-09-06T23:54:36.782Z,19.88
2022-09-06T23:57:06.117Z,19.79
2022-09-06T23:59:34.870Z,19.80
